N258LJ KWYS-KJAC
Flight info
| Callsign | N258LJ |
|---|---|
| Flight time | 0h 19m |
| Altitude | 19000 |
| Route | QUIRT |
| Aircraft | TBM9/L-SDFGRWY/S |
Departure
| Time | 2026-05-07 21:52 |
|---|---|
| Airport | Yellowstone Airport (KWYS) |
Arrival
| Time | 2026-05-07 22:11 |
|---|---|
| Airport | Jackson Hole Airport (KJAC) |
| Time | Latitude | Longitude | Altitude | Speed | Heading |
|---|---|---|---|---|---|
| 2026-05-07 21:25 | 44.68874 | -111.11406 | 6652 ft | 0 kts | 206° |
| 2026-05-07 21:48 | 44.68873 | -111.11407 | 6652 ft | 2 kts | 205° |
| 2026-05-07 21:48 | 44.68848 | -111.11469 | 6652 ft | 12 kts | 280° |
| 2026-05-07 21:48 | 44.68897 | -111.11552 | 6657 ft | 12 kts | 2° |
| 2026-05-07 21:49 | 44.68977 | -111.11502 | 6656 ft | 14 kts | 24° |
| 2026-05-07 21:49 | 44.69073 | -111.11435 | 6652 ft | 17 kts | 27° |
| 2026-05-07 21:49 | 44.69189 | -111.11356 | 6652 ft | 20 kts | 26° |
| 2026-05-07 21:49 | 44.69324 | -111.11261 | 6656 ft | 23 kts | 27° |
| 2026-05-07 21:50 | 44.69475 | -111.11157 | 6659 ft | 25 kts | 26° |
| 2026-05-07 21:50 | 44.69642 | -111.11041 | 6654 ft | 29 kts | 26° |
| 2026-05-07 21:50 | 44.69817 | -111.10948 | 6647 ft | 19 kts | 322° |
| 2026-05-07 21:50 | 44.69855 | -111.11042 | 6651 ft | 9 kts | 289° |
| 2026-05-07 21:51 | 44.69802 | -111.11102 | 6651 ft | 22 kts | 207° |
| 2026-05-07 21:51 | 44.69477 | -111.11325 | 6654 ft | 82 kts | 207° |
| 2026-05-07 21:51 | 44.68819 | -111.11793 | 6727 ft | 124 kts | 214° |
| 2026-05-07 21:51 | 44.68017 | -111.12374 | 7224 ft | 135 kts | 215° |
| 2026-05-07 21:52 | 44.67124 | -111.13027 | 7615 ft | 158 kts | 215° |
| 2026-05-07 21:52 | 44.66072 | -111.13857 | 7959 ft | 177 kts | 215° |
| 2026-05-07 21:52 | 44.65029 | -111.14695 | 8534 ft | 174 kts | 213° |
| 2026-05-07 21:52 | 44.63963 | -111.15482 | 9162 ft | 173 kts | 213° |
| 2026-05-07 21:53 | 44.62866 | -111.16208 | 9811 ft | 178 kts | 202° |
| 2026-05-07 21:53 | 44.61606 | -111.16041 | 10455 ft | 193 kts | 156° |
| 2026-05-07 21:53 | 44.60620 | -111.14732 | 11059 ft | 198 kts | 131° |
| 2026-05-07 21:53 | 44.59750 | -111.13202 | 11643 ft | 202 kts | 131° |
| 2026-05-07 21:54 | 44.58870 | -111.11663 | 12247 ft | 203 kts | 131° |
| 2026-05-07 21:54 | 44.57957 | -111.10081 | 12655 ft | 216 kts | 131° |
| 2026-05-07 21:54 | 44.56997 | -111.08424 | 13192 ft | 219 kts | 131° |
| 2026-05-07 21:54 | 44.56030 | -111.06757 | 13767 ft | 221 kts | 131° |
| 2026-05-07 21:55 | 44.55056 | -111.05070 | 14296 ft | 222 kts | 131° |
| 2026-05-07 21:55 | 44.54077 | -111.03386 | 14828 ft | 223 kts | 131° |
| 2026-05-07 21:55 | 44.53086 | -111.01688 | 15364 ft | 227 kts | 131° |
| 2026-05-07 21:55 | 44.52091 | -110.99989 | 15858 ft | 230 kts | 131° |
| 2026-05-07 21:56 | 44.51073 | -110.98252 | 16384 ft | 230 kts | 131° |
| 2026-05-07 21:56 | 44.50053 | -110.96523 | 16878 ft | 232 kts | 131° |
| 2026-05-07 21:56 | 44.49018 | -110.94769 | 17341 ft | 235 kts | 131° |
| 2026-05-07 21:56 | 44.47978 | -110.93004 | 17878 ft | 236 kts | 131° |
| 2026-05-07 21:57 | 44.46788 | -110.91427 | 18360 ft | 235 kts | 153° |
| 2026-05-07 21:57 | 44.45273 | -110.90596 | 18774 ft | 234 kts | 168° |
| 2026-05-07 21:57 | 44.43670 | -110.89924 | 18964 ft | 251 kts | 166° |
| 2026-05-07 21:57 | 44.41968 | -110.89047 | 18968 ft | 270 kts | 162° |
| 2026-05-07 21:58 | 44.40165 | -110.88077 | 18975 ft | 284 kts | 163° |
| 2026-05-07 21:58 | 44.38276 | -110.87109 | 18974 ft | 293 kts | 164° |
| 2026-05-07 21:58 | 44.36359 | -110.86142 | 18969 ft | 291 kts | 163° |
| 2026-05-07 21:58 | 44.34473 | -110.85174 | 18973 ft | 293 kts | 163° |
| 2026-05-07 21:59 | 44.32549 | -110.84184 | 18972 ft | 296 kts | 163° |
| 2026-05-07 21:59 | 44.30612 | -110.83194 | 18971 ft | 298 kts | 163° |
| 2026-05-07 21:59 | 44.28661 | -110.82201 | 18972 ft | 298 kts | 163° |
| 2026-05-07 21:59 | 44.26709 | -110.81204 | 18968 ft | 300 kts | 163° |
| 2026-05-07 22:00 | 44.24749 | -110.80206 | 18733 ft | 300 kts | 163° |
| 2026-05-07 22:00 | 44.22783 | -110.79207 | 18369 ft | 301 kts | 163° |
| 2026-05-07 22:00 | 44.20814 | -110.78204 | 17940 ft | 301 kts | 163° |
| 2026-05-07 22:00 | 44.18861 | -110.77207 | 17523 ft | 295 kts | 163° |
| 2026-05-07 22:01 | 44.16959 | -110.76234 | 17135 ft | 287 kts | 163° |
| 2026-05-07 22:01 | 44.15099 | -110.75287 | 16762 ft | 282 kts | 163° |
| 2026-05-07 22:01 | 44.13270 | -110.74359 | 16388 ft | 278 kts | 164° |
| 2026-05-07 22:01 | 44.11460 | -110.73442 | 16020 ft | 275 kts | 164° |
| 2026-05-07 22:02 | 44.09691 | -110.72545 | 15664 ft | 273 kts | 164° |
| 2026-05-07 22:02 | 44.07913 | -110.71643 | 15310 ft | 271 kts | 164° |
| 2026-05-07 22:02 | 44.06144 | -110.70746 | 14953 ft | 270 kts | 165° |
| 2026-05-07 22:02 | 44.04380 | -110.69855 | 14590 ft | 269 kts | 164° |
| 2026-05-07 22:03 | 44.02632 | -110.68969 | 14241 ft | 267 kts | 165° |
| 2026-05-07 22:03 | 44.00895 | -110.68090 | 13889 ft | 265 kts | 165° |
| 2026-05-07 22:03 | 43.99162 | -110.67215 | 13514 ft | 263 kts | 165° |
| 2026-05-07 22:03 | 43.97452 | -110.66352 | 13158 ft | 260 kts | 165° |
| 2026-05-07 22:04 | 43.95757 | -110.65498 | 12815 ft | 258 kts | 165° |
| 2026-05-07 22:04 | 43.94074 | -110.64646 | 12479 ft | 257 kts | 165° |
| 2026-05-07 22:04 | 43.92402 | -110.63806 | 12147 ft | 255 kts | 165° |
| 2026-05-07 22:04 | 43.90739 | -110.62970 | 11808 ft | 251 kts | 165° |
| 2026-05-07 22:05 | 43.89129 | -110.62150 | 11489 ft | 242 kts | 166° |
| 2026-05-07 22:05 | 43.87542 | -110.61542 | 11189 ft | 233 kts | 180° |
| 2026-05-07 22:05 | 43.85953 | -110.61584 | 10903 ft | 224 kts | 195° |
| 2026-05-07 22:05 | 43.84513 | -110.62155 | 10678 ft | 213 kts | 206° |
| 2026-05-07 22:06 | 43.83127 | -110.62843 | 10466 ft | 211 kts | 206° |
| 2026-05-07 22:06 | 43.81743 | -110.63490 | 10267 ft | 209 kts | 206° |
| 2026-05-07 22:06 | 43.80376 | -110.64146 | 10096 ft | 208 kts | 206° |
| 2026-05-07 22:06 | 43.79010 | -110.64836 | 9865 ft | 208 kts | 207° |
| 2026-05-07 22:07 | 43.77653 | -110.65510 | 9673 ft | 204 kts | 206° |
| 2026-05-07 22:07 | 43.76344 | -110.66123 | 9536 ft | 195 kts | 207° |
| 2026-05-07 22:07 | 43.75073 | -110.66764 | 9290 ft | 195 kts | 206° |
| 2026-05-07 22:07 | 43.73786 | -110.67391 | 9043 ft | 197 kts | 204° |
| 2026-05-07 22:08 | 43.72481 | -110.68036 | 8780 ft | 200 kts | 202° |
| 2026-05-07 22:08 | 43.71187 | -110.68662 | 8528 ft | 193 kts | 201° |
| 2026-05-07 22:08 | 43.69947 | -110.69276 | 8285 ft | 189 kts | 201° |
| 2026-05-07 22:08 | 43.68724 | -110.69868 | 8032 ft | 182 kts | 202° |
| 2026-05-07 22:09 | 43.67650 | -110.70392 | 7822 ft | 142 kts | 205° |
| 2026-05-07 22:09 | 43.66738 | -110.70835 | 7626 ft | 134 kts | 205° |
| 2026-05-07 22:09 | 43.65862 | -110.71264 | 7434 ft | 131 kts | 206° |
| 2026-05-07 22:09 | 43.65030 | -110.71695 | 7259 ft | 126 kts | 206° |
| 2026-05-07 22:10 | 43.64220 | -110.72081 | 7066 ft | 122 kts | 206° |
| 2026-05-07 22:10 | 43.63457 | -110.72473 | 6917 ft | 113 kts | 204° |
| 2026-05-07 22:10 | 43.62740 | -110.72817 | 6757 ft | 107 kts | 201° |
| 2026-05-07 22:10 | 43.62047 | -110.73132 | 6586 ft | 103 kts | 202° |
| 2026-05-07 22:11 | 43.61386 | -110.73455 | 6436 ft | 91 kts | 204° |
| 2026-05-07 22:11 | 43.60946 | -110.73670 | 6427 ft | 38 kts | 198° |
| 2026-05-07 22:11 | 43.60725 | -110.73779 | 6427 ft | 34 kts | 199° |
| 2026-05-07 22:11 | 43.60475 | -110.73900 | 6424 ft | 32 kts | 200° |
| 2026-05-07 22:12 | 43.60380 | -110.73860 | 6424 ft | 8 kts | 114° |
| 2026-05-07 22:12 | 43.60346 | -110.73810 | 6425 ft | 8 kts | 179° |
| 2026-05-07 22:12 | 43.60286 | -110.73833 | 6425 ft | 12 kts | 198° |
| 2026-05-07 22:12 | 43.60196 | -110.73877 | 6425 ft | 15 kts | 198° |
| 2026-05-07 22:13 | 43.60084 | -110.73932 | 6425 ft | 18 kts | 197° |
| 2026-05-07 22:13 | 43.59996 | -110.73931 | 6425 ft | 11 kts | 108° |
| 2026-05-07 22:13 | 43.59946 | -110.73904 | 6422 ft | 9 kts | 199° |
| 2026-05-07 22:13 | 43.59895 | -110.73893 | 6426 ft | 5 kts | 201° |
| 2026-05-07 22:14 | 43.59890 | -110.73896 | 6426 ft | 0 kts | 200° |